sensor_id;sensor_type;location;lat;lon;timestamp;P1;durP1;ratioP1;P2;durP2;ratioP2
52740;SDS011;38634;52.138;9.912;2023-02-01T00:01:07;11.77;;;3.13;;
52740;SDS011;38634;52.138;9.912;2023-02-01T00:03:52;16.38;;;5.13;;
52740;SDS011;38634;52.138;9.912;2023-02-01T00:06:37;11.75;;;3.20;;
52740;SDS011;38634;52.138;9.912;2023-02-01T00:09:21;11.25;;;3.25;;
52740;SDS011;38634;52.138;9.912;2023-02-01T00:12:06;10.15;;;3.15;;
52740;SDS011;38634;52.138;9.912;2023-02-01T00:14:51;15.65;;;4.47;;
52740;SDS011;38634;52.138;9.912;2023-02-01T00:17:35;9.70;;;3.75;;
52740;SDS011;38634;52.138;9.912;2023-02-01T00:20:20;10.32;;;3.47;;
52740;SDS011;38634;52.138;9.912;2023-02-01T00:23:05;8.23;;;2.70;;
52740;SDS011;38634;52.138;9.912;2023-02-01T00:25:51;10.40;;;3.10;;
52740;SDS011;38634;52.138;9.912;2023-02-01T00:28:36;9.52;;;3.13;;
52740;SDS011;38634;52.138;9.912;2023-02-01T00:31:20;14.82;;;4.45;;
52740;SDS011;38634;52.138;9.912;2023-02-01T00:34:05;15.35;;;5.57;;
52740;SDS011;38634;52.138;9.912;2023-02-01T00:36:50;6.65;;;2.83;;
52740;SDS011;38634;52.138;9.912;2023-02-01T00:39:34;10.70;;;3.13;;
52740;SDS011;38634;52.138;9.912;2023-02-01T00:42:19;9.02;;;2.90;;
52740;SDS011;38634;52.138;9.912;2023-02-01T00:45:03;10.13;;;3.30;;
52740;SDS011;38634;52.138;9.912;2023-02-01T00:47:49;12.32;;;3.10;;
52740;SDS011;38634;52.138;9.912;2023-02-01T00:50:33;15.98;;;4.05;;
52740;SDS011;38634;52.138;9.912;2023-02-01T00:53:18;8.90;;;2.60;;
52740;SDS011;38634;52.138;9.912;2023-02-01T00:56:03;14.05;;;3.45;;
52740;SDS011;38634;52.138;9.912;2023-02-01T00:58:48;9.98;;;3.30;;
52740;SDS011;38634;52.138;9.912;2023-02-01T01:01:33;14.63;;;3.90;;
52740;SDS011;38634;52.138;9.912;2023-02-01T01:04:18;15.48;;;3.60;;
52740;SDS011;38634;52.138;9.912;2023-02-01T01:07:02;15.02;;;3.40;;
52740;SDS011;38634;52.138;9.912;2023-02-01T01:09:47;14.25;;;3.42;;
52740;SDS011;38634;52.138;9.912;2023-02-01T01:12:31;16.40;;;3.80;;
52740;SDS011;38634;52.138;9.912;2023-02-01T01:15:16;13.23;;;3.25;;
52740;SDS011;38634;52.138;9.912;2023-02-01T01:18:01;14.20;;;3.58;;
52740;SDS011;38634;52.138;9.912;2023-02-01T01:20:47;14.32;;;3.45;;
52740;SDS011;38634;52.138;9.912;2023-02-01T01:23:31;12.07;;;3.28;;
52740;SDS011;38634;52.138;9.912;2023-02-01T01:26:18;13.30;;;3.72;;
52740;SDS011;38634;52.138;9.912;2023-02-01T01:29:05;12.52;;;3.30;;
52740;SDS011;38634;52.138;9.912;2023-02-01T01:31:49;14.55;;;5.05;;
52740;SDS011;38634;52.138;9.912;2023-02-01T01:34:34;14.63;;;4.18;;
52740;SDS011;38634;52.138;9.912;2023-02-01T01:37:18;16.40;;;3.80;;
52740;SDS011;38634;52.138;9.912;2023-02-01T01:40:03;16.67;;;4.10;;
52740;SDS011;38634;52.138;9.912;2023-02-01T01:42:49;15.75;;;3.78;;
52740;SDS011;38634;52.138;9.912;2023-02-01T01:45:37;12.45;;;3.38;;
52740;SDS011;38634;52.138;9.912;2023-02-01T01:48:25;15.15;;;4.47;;
52740;SDS011;38634;52.138;9.912;2023-02-01T01:51:12;17.48;;;4.10;;
52740;SDS011;38634;52.138;9.912;2023-02-01T01:54:00;15.52;;;6.05;;
52740;SDS011;38634;52.138;9.912;2023-02-01T01:57:05;13.00;;;3.22;;
52740;SDS011;38634;52.138;9.912;2023-02-01T02:00:00;15.82;;;3.63;;
52740;SDS011;38634;52.138;9.912;2023-02-01T02:02:50;14.45;;;3.28;;
52740;SDS011;38634;52.138;9.912;2023-02-01T02:05:50;16.98;;;3.97;;
52740;SDS011;38634;52.138;9.912;2023-02-01T02:08:37;17.85;;;4.43;;
52740;SDS011;38634;52.138;9.912;2023-02-01T02:11:22;13.40;;;3.55;;
52740;SDS011;38634;52.138;9.912;2023-02-01T02:14:08;11.35;;;2.85;;
52740;SDS011;38634;52.138;9.912;2023-02-01T08:04:06;13.00;;;4.43;;
52740;SDS011;38634;52.138;9.912;2023-02-01T08:06:52;9.75;;;3.25;;
52740;SDS011;38634;52.138;9.912;2023-02-01T08:09:37;9.73;;;3.20;;
52740;SDS011;38634;52.138;9.912;2023-02-01T08:12:21;9.95;;;3.35;;
52740;SDS011;38634;52.138;9.912;2023-02-01T08:15:06;7.60;;;3.00;;
52740;SDS011;38634;52.138;9.912;2023-02-01T08:17:51;8.65;;;3.80;;
52740;SDS011;38634;52.138;9.912;2023-02-01T08:20:36;9.07;;;3.25;;
52740;SDS011;38634;52.138;9.912;2023-02-01T08:23:22;9.95;;;3.45;;
52740;SDS011;38634;52.138;9.912;2023-02-01T08:28:58;12.32;;;3.53;;
52740;SDS011;38634;52.138;9.912;2023-02-01T08:31:46;8.88;;;2.78;;
52740;SDS011;38634;52.138;9.912;2023-02-01T08:34:31;12.13;;;3.70;;
52740;SDS011;38634;52.138;9.912;2023-02-01T08:37:15;8.30;;;2.85;;
52740;SDS011;38634;52.138;9.912;2023-02-01T08:40:00;12.45;;;4.50;;
52740;SDS011;38634;52.138;9.912;2023-02-01T08:42:44;9.00;;;2.92;;
52740;SDS011;38634;52.138;9.912;2023-02-01T08:45:35;9.88;;;2.88;;
52740;SDS011;38634;52.138;9.912;2023-02-01T08:48:20;11.00;;;3.95;;
52740;SDS011;38634;52.138;9.912;2023-02-01T08:51:06;18.67;;;5.15;;
52740;SDS011;38634;52.138;9.912;2023-02-01T08:53:55;16.85;;;5.10;;
52740;SDS011;38634;52.138;9.912;2023-02-01T08:56:39;13.93;;;3.38;;
52740;SDS011;38634;52.138;9.912;2023-02-01T08:59:24;13.88;;;3.40;;
52740;SDS011;38634;52.138;9.912;2023-02-01T09:02:11;14.25;;;3.47;;
52740;SDS011;38634;52.138;9.912;2023-02-01T09:04:57;12.80;;;3.33;;
52740;SDS011;38634;52.138;9.912;2023-02-01T09:07:42;14.93;;;3.45;;
52740;SDS011;38634;52.138;9.912;2023-02-01T09:10:26;12.30;;;3.25;;
52740;SDS011;38634;52.138;9.912;2023-02-01T09:13:11;11.55;;;3.45;;
52740;SDS011;38634;52.138;9.912;2023-02-01T09:15:55;11.02;;;3.08;;
52740;SDS011;38634;52.138;9.912;2023-02-01T09:18:40;16.15;;;4.60;;
52740;SDS011;38634;52.138;9.912;2023-02-01T09:21:24;15.63;;;4.38;;
52740;SDS011;38634;52.138;9.912;2023-02-01T09:24:12;19.02;;;4.75;;
52740;SDS011;38634;52.138;9.912;2023-02-01T09:26:57;37.45;;;8.45;;
52740;SDS011;38634;52.138;9.912;2023-02-01T09:29:41;31.75;;;7.10;;
52740;SDS011;38634;52.138;9.912;2023-02-01T09:32:26;14.43;;;3.80;;
52740;SDS011;38634;52.138;9.912;2023-02-01T09:35:11;18.98;;;4.63;;
52740;SDS011;38634;52.138;9.912;2023-02-01T09:37:55;28.58;;;6.25;;
52740;SDS011;38634;52.138;9.912;2023-02-01T09:40:42;37.45;;;8.90;;
52740;SDS011;38634;52.138;9.912;2023-02-01T09:46:56;34.25;;;7.78;;
52740;SDS011;38634;52.138;9.912;2023-02-01T09:49:45;36.25;;;8.20;;
52740;SDS011;38634;52.138;9.912;2023-02-01T09:52:50;21.33;;;6.93;;
52740;SDS011;38634;52.138;9.912;2023-02-01T09:56:04;32.15;;;7.70;;
52740;SDS011;38634;52.138;9.912;2023-02-01T09:59:09;30.48;;;6.95;;
52740;SDS011;38634;52.138;9.912;2023-02-01T10:02:12;21.95;;;5.63;;
52740;SDS011;38634;52.138;9.912;2023-02-01T10:05:03;40.20;;;8.70;;
52740;SDS011;38634;52.138;9.912;2023-02-01T10:10:49;47.05;;;9.73;;
52740;SDS011;38634;52.138;9.912;2023-02-01T10:13:44;31.35;;;7.05;;
52740;SDS011;38634;52.138;9.912;2023-02-01T10:25:36;26.25;;;5.93;;
52740;SDS011;38634;52.138;9.912;2023-02-01T10:28:28;22.50;;;5.57;;
52740;SDS011;38634;52.138;9.912;2023-02-01T10:31:13;23.80;;;6.53;;
52740;SDS011;38634;52.138;9.912;2023-02-01T10:34:06;39.45;;;10.07;;
52740;SDS011;38634;52.138;9.912;2023-02-01T10:40:17;31.77;;;7.18;;
52740;SDS011;38634;52.138;9.912;2023-02-01T10:43:12;25.10;;;5.85;;
52740;SDS011;38634;52.138;9.912;2023-02-01T10:45:57;25.38;;;5.95;;
52740;SDS011;38634;52.138;9.912;2023-02-01T10:48:41;34.13;;;8.02;;
52740;SDS011;38634;52.138;9.912;2023-02-01T10:51:28;38.97;;;7.90;;
52740;SDS011;38634;52.138;9.912;2023-02-01T10:54:33;17.40;;;4.63;;
52740;SDS011;38634;52.138;9.912;2023-02-01T10:57:23;40.88;;;8.70;;
52740;SDS011;38634;52.138;9.912;2023-02-01T11:00:28;17.13;;;4.18;;
52740;SDS011;38634;52.138;9.912;2023-02-01T11:03:33;25.52;;;5.57;;
52740;SDS011;38634;52.138;9.912;2023-02-01T11:06:36;35.75;;;7.07;;
52740;SDS011;38634;52.138;9.912;2023-02-01T11:09:22;32.58;;;7.28;;
52740;SDS011;38634;52.138;9.912;2023-02-01T11:15:20;40.65;;;8.95;;
52740;SDS011;38634;52.138;9.912;2023-02-01T11:18:16;20.92;;;5.30;;
52740;SDS011;38634;52.138;9.912;2023-02-01T11:21:07;38.30;;;7.60;;
52740;SDS011;38634;52.138;9.912;2023-02-01T11:23:53;35.50;;;8.70;;
52740;SDS011;38634;52.138;9.912;2023-02-01T11:26:39;18.88;;;4.72;;
52740;SDS011;38634;52.138;9.912;2023-02-01T11:29:24;26.75;;;6.60;;
52740;SDS011;38634;52.138;9.912;2023-02-01T11:32:13;46.45;;;9.07;;
52740;SDS011;38634;52.138;9.912;2023-02-01T11:35:02;17.77;;;4.95;;
52740;SDS011;38634;52.138;9.912;2023-02-01T11:37:52;24.02;;;6.00;;
52740;SDS011;38634;52.138;9.912;2023-02-01T11:40:42;29.13;;;6.90;;
52740;SDS011;38634;52.138;9.912;2023-02-01T11:43:27;43.80;;;8.07;;
52740;SDS011;38634;52.138;9.912;2023-02-01T11:46:16;45.17;;;8.65;;
52740;SDS011;38634;52.138;9.912;2023-02-01T11:49:25;30.20;;;6.57;;
52740;SDS011;38634;52.138;9.912;2023-02-01T11:58:49;33.10;;;7.05;;
52740;SDS011;38634;52.138;9.912;2023-02-01T12:20:34;37.95;;;8.25;;
52740;SDS011;38634;52.138;9.912;2023-02-01T12:33:30;17.40;;;5.10;;
52740;SDS011;38634;52.138;9.912;2023-02-01T12:36:32;22.85;;;5.72;;
52740;SDS011;38634;52.138;9.912;2023-02-01T12:39:41;42.92;;;8.48;;
52740;SDS011;38634;52.138;9.912;2023-02-01T12:43:00;21.92;;;5.63;;
52740;SDS011;38634;52.138;9.912;2023-02-01T12:46:30;46.28;;;9.00;;
52740;SDS011;38634;52.138;9.912;2023-02-01T12:49:22;45.60;;;8.88;;
52740;SDS011;38634;52.138;9.912;2023-02-01T12:55:36;23.83;;;5.43;;
52740;SDS011;38634;52.138;9.912;2023-02-01T12:58:35;49.92;;;10.05;;
52740;SDS011;38634;52.138;9.912;2023-02-01T13:04:52;51.97;;;10.52;;
52740;SDS011;38634;52.138;9.912;2023-02-01T13:07:52;26.63;;;5.97;;
52740;SDS011;38634;52.138;9.912;2023-02-01T13:11:38;19.85;;;5.03;;
52740;SDS011;38634;52.138;9.912;2023-02-01T13:17:11;21.25;;;5.53;;
52740;SDS011;38634;52.138;9.912;2023-02-01T13:22:54;40.00;;;8.27;;
52740;SDS011;38634;52.138;9.912;2023-02-01T13:26:22;48.22;;;8.48;;
52740;SDS011;38634;52.138;9.912;2023-02-01T13:29:08;43.08;;;8.30;;
52740;SDS011;38634;52.138;9.912;2023-02-01T13:41:53;21.52;;;5.13;;
52740;SDS011;38634;52.138;9.912;2023-02-01T13:44:44;18.80;;;4.53;;
52740;SDS011;38634;52.138;9.912;2023-02-01T13:47:57;33.17;;;7.18;;
52740;SDS011;38634;52.138;9.912;2023-02-01T13:50:48;41.28;;;8.20;;
52740;SDS011;38634;52.138;9.912;2023-02-01T13:53:36;18.67;;;4.65;;
52740;SDS011;38634;52.138;9.912;2023-02-01T13:56:23;20.55;;;4.93;;
52740;SDS011;38634;52.138;9.912;2023-02-01T14:08:23;49.78;;;9.48;;
52740;SDS011;38634;52.138;9.912;2023-02-01T14:23:28;48.63;;;10.00;;
52740;SDS011;38634;52.138;9.912;2023-02-01T14:26:15;45.20;;;9.55;;
52740;SDS011;38634;52.138;9.912;2023-02-01T14:32:14;29.80;;;6.95;;
52740;SDS011;38634;52.138;9.912;2023-02-01T14:35:16;37.33;;;9.07;;
52740;SDS011;38634;52.138;9.912;2023-02-01T14:38:09;24.33;;;5.85;;
52740;SDS011;38634;52.138;9.912;2023-02-01T14:40:54;37.83;;;8.55;;
52740;SDS011;38634;52.138;9.912;2023-02-01T14:43:49;45.60;;;8.73;;
52740;SDS011;38634;52.138;9.912;2023-02-01T14:53:17;23.40;;;6.25;;
52740;SDS011;38634;52.138;9.912;2023-02-01T14:56:09;37.63;;;8.30;;
52740;SDS011;38634;52.138;9.912;2023-02-01T14:59:15;38.92;;;8.23;;
52740;SDS011;38634;52.138;9.912;2023-02-01T15:02:07;36.35;;;8.00;;
52740;SDS011;38634;52.138;9.912;2023-02-01T15:05:20;39.78;;;7.78;;
52740;SDS011;38634;52.138;9.912;2023-02-01T15:08:17;27.13;;;6.60;;
52740;SDS011;38634;52.138;9.912;2023-02-01T15:11:08;26.35;;;6.10;;
52740;SDS011;38634;52.138;9.912;2023-02-01T15:14:01;34.33;;;8.82;;
52740;SDS011;38634;52.138;9.912;2023-02-01T15:16:46;40.63;;;8.32;;
52740;SDS011;38634;52.138;9.912;2023-02-01T15:19:37;35.50;;;8.00;;
52740;SDS011;38634;52.138;9.912;2023-02-01T15:22:22;21.42;;;5.50;;
52740;SDS011;38634;52.138;9.912;2023-02-01T15:25:18;25.50;;;6.50;;
52740;SDS011;38634;52.138;9.912;2023-02-01T15:28:22;50.38;;;10.15;;
52740;SDS011;38634;52.138;9.912;2023-02-01T15:31:06;43.67;;;9.43;;
52740;SDS011;38634;52.138;9.912;2023-02-01T15:33:57;35.40;;;8.07;;
52740;SDS011;38634;52.138;9.912;2023-02-01T15:36:42;23.50;;;5.75;;
52740;SDS011;38634;52.138;9.912;2023-02-01T15:39:27;39.08;;;8.70;;
52740;SDS011;38634;52.138;9.912;2023-02-01T15:42:15;44.05;;;8.82;;
52740;SDS011;38634;52.138;9.912;2023-02-01T15:45:03;17.52;;;4.57;;
52740;SDS011;38634;52.138;9.912;2023-02-01T15:47:49;19.25;;;5.10;;
52740;SDS011;38634;52.138;9.912;2023-02-01T15:50:35;46.88;;;10.38;;
52740;SDS011;38634;52.138;9.912;2023-02-01T15:53:24;31.08;;;7.07;;
52740;SDS011;38634;52.138;9.912;2023-02-01T15:56:14;18.50;;;5.10;;
52740;SDS011;38634;52.138;9.912;2023-02-01T15:59:00;37.03;;;7.97;;
52740;SDS011;38634;52.138;9.912;2023-02-01T16:01:47;40.97;;;8.75;;
52740;SDS011;38634;52.138;9.912;2023-02-01T16:04:32;29.55;;;6.85;;
52740;SDS011;38634;52.138;9.912;2023-02-01T16:07:23;19.95;;;5.32;;
52740;SDS011;38634;52.138;9.912;2023-02-01T16:10:25;45.95;;;9.82;;
52740;SDS011;38634;52.138;9.912;2023-02-01T16:13:11;22.58;;;5.78;;
52740;SDS011;38634;52.138;9.912;2023-02-01T16:15:56;33.28;;;7.63;;
52740;SDS011;38634;52.138;9.912;2023-02-01T16:18:41;45.20;;;9.68;;
52740;SDS011;38634;52.138;9.912;2023-02-01T16:21:25;32.15;;;7.07;;
52740;SDS011;38634;52.138;9.912;2023-02-01T16:24:10;20.27;;;5.78;;
52740;SDS011;38634;52.138;9.912;2023-02-01T16:26:54;23.17;;;5.30;;
52740;SDS011;38634;52.138;9.912;2023-02-01T16:29:39;39.38;;;8.15;;
52740;SDS011;38634;52.138;9.912;2023-02-01T16:32:24;34.25;;;7.47;;
52740;SDS011;38634;52.138;9.912;2023-02-01T16:35:13;28.48;;;6.30;;
52740;SDS011;38634;52.138;9.912;2023-02-01T16:38:04;34.33;;;7.88;;
52740;SDS011;38634;52.138;9.912;2023-02-01T16:40:56;35.33;;;7.30;;
52740;SDS011;38634;52.138;9.912;2023-02-01T16:43:41;19.35;;;5.32;;
52740;SDS011;38634;52.138;9.912;2023-02-01T16:46:26;18.40;;;5.82;;
52740;SDS011;38634;52.138;9.912;2023-02-01T16:49:25;33.38;;;7.25;;
52740;SDS011;38634;52.138;9.912;2023-02-01T16:52:20;19.58;;;5.32;;
52740;SDS011;38634;52.138;9.912;2023-02-01T16:55:17;42.90;;;8.70;;
52740;SDS011;38634;52.138;9.912;2023-02-01T16:58:05;27.45;;;5.95;;
52740;SDS011;38634;52.138;9.912;2023-02-01T17:00:49;42.15;;;8.73;;
52740;SDS011;38634;52.138;9.912;2023-02-01T17:03:35;51.58;;;9.70;;
52740;SDS011;38634;52.138;9.912;2023-02-01T17:06:24;18.02;;;4.30;;
52740;SDS011;38634;52.138;9.912;2023-02-01T17:09:09;25.02;;;6.38;;
52740;SDS011;38634;52.138;9.912;2023-02-01T17:11:54;37.63;;;7.90;;
52740;SDS011;38634;52.138;9.912;2023-02-01T17:14:39;47.28;;;10.02;;
52740;SDS011;38634;52.138;9.912;2023-02-01T17:17:27;19.40;;;5.50;;
52740;SDS011;38634;52.138;9.912;2023-02-01T17:20:19;31.73;;;7.72;;
52740;SDS011;38634;52.138;9.912;2023-02-01T17:23:06;40.95;;;8.82;;
52740;SDS011;38634;52.138;9.912;2023-02-01T17:25:51;22.65;;;5.93;;
52740;SDS011;38634;52.138;9.912;2023-02-01T17:28:36;21.65;;;5.45;;
52740;SDS011;38634;52.138;9.912;2023-02-01T17:31:21;36.88;;;8.45;;
52740;SDS011;38634;52.138;9.912;2023-02-01T17:34:05;37.22;;;8.07;;
52740;SDS011;38634;52.138;9.912;2023-02-01T17:36:50;37.10;;;8.38;;
52740;SDS011;38634;52.138;9.912;2023-02-01T17:39:35;19.05;;;4.88;;
52740;SDS011;38634;52.138;9.912;2023-02-01T17:42:43;26.75;;;6.45;;
52740;SDS011;38634;52.138;9.912;2023-02-01T17:48:19;42.63;;;9.70;;
52740;SDS011;38634;52.138;9.912;2023-02-01T17:51:05;33.72;;;7.95;;
52740;SDS011;38634;52.138;9.912;2023-02-01T17:54:01;28.10;;;7.60;;
52740;SDS011;38634;52.138;9.912;2023-02-01T17:56:46;42.25;;;9.23;;
52740;SDS011;38634;52.138;9.912;2023-02-01T17:59:31;43.38;;;9.48;;
52740;SDS011;38634;52.138;9.912;2023-02-01T18:02:22;19.27;;;5.25;;
52740;SDS011;38634;52.138;9.912;2023-02-01T18:08:02;27.70;;;6.88;;
52740;SDS011;38634;52.138;9.912;2023-02-01T18:10:51;16.77;;;4.80;;
52740;SDS011;38634;52.138;9.912;2023-02-01T18:13:39;41.65;;;8.73;;
52740;SDS011;38634;52.138;9.912;2023-02-01T18:16:25;41.65;;;8.75;;
52740;SDS011;38634;52.138;9.912;2023-02-01T18:19:15;25.73;;;7.55;;
52740;SDS011;38634;52.138;9.912;2023-02-01T18:21:59;30.35;;;7.05;;
52740;SDS011;38634;52.138;9.912;2023-02-01T18:24:45;42.78;;;9.45;;
52740;SDS011;38634;52.138;9.912;2023-02-01T18:27:30;34.80;;;7.47;;
52740;SDS011;38634;52.138;9.912;2023-02-01T18:30:14;24.88;;;6.63;;
52740;SDS011;38634;52.138;9.912;2023-02-01T18:32:59;24.35;;;6.18;;
52740;SDS011;38634;52.138;9.912;2023-02-01T18:35:44;27.50;;;6.40;;
52740;SDS011;38634;52.138;9.912;2023-02-01T18:38:29;43.22;;;10.40;;
52740;SDS011;38634;52.138;9.912;2023-02-01T18:41:17;39.97;;;8.73;;
52740;SDS011;38634;52.138;9.912;2023-02-01T18:44:09;20.15;;;5.50;;
52740;SDS011;38634;52.138;9.912;2023-02-01T18:46:58;41.03;;;8.48;;
52740;SDS011;38634;52.138;9.912;2023-02-01T18:49:43;29.25;;;6.68;;
52740;SDS011;38634;52.138;9.912;2023-02-01T18:52:28;24.73;;;6.63;;
52740;SDS011;38634;52.138;9.912;2023-02-01T18:55:13;16.67;;;4.68;;
52740;SDS011;38634;52.138;9.912;2023-02-01T18:57:58;28.58;;;7.18;;
52740;SDS011;38634;52.138;9.912;2023-02-01T19:00:44;43.05;;;9.63;;
52740;SDS011;38634;52.138;9.912;2023-02-01T19:03:30;35.00;;;8.43;;
52740;SDS011;38634;52.138;9.912;2023-02-01T19:06:15;20.98;;;6.07;;
52740;SDS011;38634;52.138;9.912;2023-02-01T19:08:59;18.13;;;5.47;;
52740;SDS011;38634;52.138;9.912;2023-02-01T19:11:44;29.50;;;7.28;;
52740;SDS011;38634;52.138;9.912;2023-02-01T19:14:29;40.17;;;8.73;;
52740;SDS011;38634;52.138;9.912;2023-02-01T19:17:13;45.03;;;9.77;;
52740;SDS011;38634;52.138;9.912;2023-02-01T19:19:58;16.60;;;5.70;;
52740;SDS011;38634;52.138;9.912;2023-02-01T19:22:43;13.95;;;4.53;;
52740;SDS011;38634;52.138;9.912;2023-02-01T19:25:29;13.05;;;6.50;;
52740;SDS011;38634;52.138;9.912;2023-02-01T19:28:14;23.38;;;7.50;;
52740;SDS011;38634;52.138;9.912;2023-02-01T19:31:00;27.75;;;8.23;;
52740;SDS011;38634;52.138;9.912;2023-02-01T19:33:48;20.42;;;6.65;;
52740;SDS011;38634;52.138;9.912;2023-02-01T19:36:33;18.13;;;5.22;;
52740;SDS011;38634;52.138;9.912;2023-02-01T19:39:21;37.50;;;8.88;;
52740;SDS011;38634;52.138;9.912;2023-02-01T19:42:07;30.90;;;8.35;;
52740;SDS011;38634;52.138;9.912;2023-02-01T19:44:52;15.18;;;5.43;;
52740;SDS011;38634;52.138;9.912;2023-02-01T19:47:36;15.40;;;4.18;;
52740;SDS011;38634;52.138;9.912;2023-02-01T19:50:21;20.23;;;5.43;;
52740;SDS011;38634;52.138;9.912;2023-02-01T19:53:06;35.05;;;8.02;;
52740;SDS011;38634;52.138;9.912;2023-02-01T19:55:50;35.80;;;7.95;;
52740;SDS011;38634;52.138;9.912;2023-02-01T19:58:39;17.92;;;5.80;;
52740;SDS011;38634;52.138;9.912;2023-02-01T20:01:23;20.85;;;5.32;;
52740;SDS011;38634;52.138;9.912;2023-02-01T20:04:09;25.00;;;6.38;;
52740;SDS011;38634;52.138;9.912;2023-02-01T20:06:55;39.97;;;10.07;;
52740;SDS011;38634;52.138;9.912;2023-02-01T20:09:40;31.52;;;7.78;;
52740;SDS011;38634;52.138;9.912;2023-02-01T20:12:25;20.02;;;5.05;;
52740;SDS011;38634;52.138;9.912;2023-02-01T20:15:09;22.88;;;5.80;;
52740;SDS011;38634;52.138;9.912;2023-02-01T20:17:55;33.30;;;9.10;;
52740;SDS011;38634;52.138;9.912;2023-02-01T20:20:40;35.08;;;9.35;;
52740;SDS011;38634;52.138;9.912;2023-02-01T20:23:26;28.05;;;7.38;;
52740;SDS011;38634;52.138;9.912;2023-02-01T20:26:11;13.43;;;4.22;;
52740;SDS011;38634;52.138;9.912;2023-02-01T20:28:55;21.35;;;5.82;;
52740;SDS011;38634;52.138;9.912;2023-02-01T20:31:41;26.13;;;6.63;;
52740;SDS011;38634;52.138;9.912;2023-02-01T20:34:28;40.80;;;9.30;;
52740;SDS011;38634;52.138;9.912;2023-02-01T20:37:13;22.42;;;5.78;;
52740;SDS011;38634;52.138;9.912;2023-02-01T20:39:58;16.02;;;4.55;;
52740;SDS011;38634;52.138;9.912;2023-02-01T20:42:42;23.50;;;7.03;;
52740;SDS011;38634;52.138;9.912;2023-02-01T20:45:27;29.17;;;7.30;;
52740;SDS011;38634;52.138;9.912;2023-02-01T20:48:12;38.33;;;8.63;;
52740;SDS011;38634;52.138;9.912;2023-02-01T20:50:57;30.42;;;6.95;;
52740;SDS011;38634;52.138;9.912;2023-02-01T20:53:42;20.23;;;5.65;;
52740;SDS011;38634;52.138;9.912;2023-02-01T20:56:27;19.17;;;5.03;;
52740;SDS011;38634;52.138;9.912;2023-02-01T20:59:12;24.33;;;6.40;;
52740;SDS011;38634;52.138;9.912;2023-02-01T21:01:57;45.47;;;9.65;;
52740;SDS011;38634;52.138;9.912;2023-02-01T21:04:42;40.80;;;8.68;;
52740;SDS011;38634;52.138;9.912;2023-02-01T21:07:26;23.77;;;6.40;;
52740;SDS011;38634;52.138;9.912;2023-02-01T21:10:11;21.30;;;8.77;;
52740;SDS011;38634;52.138;9.912;2023-02-01T21:12:55;17.48;;;5.47;;
52740;SDS011;38634;52.138;9.912;2023-02-01T21:15:42;30.02;;;8.45;;
52740;SDS011;38634;52.138;9.912;2023-02-01T21:18:26;35.50;;;8.95;;
52740;SDS011;38634;52.138;9.912;2023-02-01T21:21:12;19.55;;;5.20;;
52740;SDS011;38634;52.138;9.912;2023-02-01T21:23:57;21.88;;;7.13;;
52740;SDS011;38634;52.138;9.912;2023-02-01T21:26:42;16.00;;;5.75;;
52740;SDS011;38634;52.138;9.912;2023-02-01T21:29:26;12.63;;;5.72;;
52740;SDS011;38634;52.138;9.912;2023-02-01T21:32:11;13.73;;;4.00;;
52740;SDS011;38634;52.138;9.912;2023-02-01T21:34:56;16.70;;;3.88;;
52740;SDS011;38634;52.138;9.912;2023-02-01T21:37:43;12.75;;;3.33;;
52740;SDS011;38634;52.138;9.912;2023-02-01T21:40:28;14.05;;;4.15;;
52740;SDS011;38634;52.138;9.912;2023-02-01T21:43:13;12.70;;;3.38;;
52740;SDS011;38634;52.138;9.912;2023-02-01T21:45:57;12.57;;;3.28;;
52740;SDS011;38634;52.138;9.912;2023-02-01T21:48:42;12.10;;;3.53;;
52740;SDS011;38634;52.138;9.912;2023-02-01T21:51:27;12.05;;;3.03;;
52740;SDS011;38634;52.138;9.912;2023-02-01T21:54:12;13.80;;;3.50;;
52740;SDS011;38634;52.138;9.912;2023-02-01T21:56:57;13.65;;;3.65;;
52740;SDS011;38634;52.138;9.912;2023-02-01T21:59:42;12.18;;;3.72;;
52740;SDS011;38634;52.138;9.912;2023-02-01T22:02:27;15.93;;;4.75;;
52740;SDS011;38634;52.138;9.912;2023-02-01T22:05:11;12.40;;;3.17;;
52740;SDS011;38634;52.138;9.912;2023-02-01T22:07:57;14.38;;;3.50;;
52740;SDS011;38634;52.138;9.912;2023-02-01T22:10:42;10.18;;;3.50;;
52740;SDS011;38634;52.138;9.912;2023-02-01T22:13:26;7.32;;;2.72;;
52740;SDS011;38634;52.138;9.912;2023-02-01T22:16:11;5.75;;;2.90;;
52740;SDS011;38634;52.138;9.912;2023-02-01T22:19:01;10.50;;;3.05;;
52740;SDS011;38634;52.138;9.912;2023-02-01T22:21:46;13.13;;;4.05;;
52740;SDS011;38634;52.138;9.912;2023-02-01T22:24:31;14.25;;;3.53;;
52740;SDS011;38634;52.138;9.912;2023-02-01T22:27:18;11.23;;;2.95;;
52740;SDS011;38634;52.138;9.912;2023-02-01T22:30:02;12.40;;;3.17;;
52740;SDS011;38634;52.138;9.912;2023-02-01T22:32:47;13.45;;;3.65;;
52740;SDS011;38634;52.138;9.912;2023-02-01T22:35:32;12.23;;;3.22;;
52740;SDS011;38634;52.138;9.912;2023-02-01T22:38:16;13.43;;;3.53;;
52740;SDS011;38634;52.138;9.912;2023-02-01T22:41:02;13.70;;;5.38;;
52740;SDS011;38634;52.138;9.912;2023-02-01T22:43:48;9.07;;;2.95;;
52740;SDS011;38634;52.138;9.912;2023-02-01T22:46:32;27.77;;;5.65;;
52740;SDS011;38634;52.138;9.912;2023-02-01T22:49:17;10.35;;;2.67;;
52740;SDS011;38634;52.138;9.912;2023-02-01T22:52:02;11.95;;;3.50;;
52740;SDS011;38634;52.138;9.912;2023-02-01T22:54:46;11.45;;;3.17;;
52740;SDS011;38634;52.138;9.912;2023-02-01T22:57:31;15.30;;;4.32;;
52740;SDS011;38634;52.138;9.912;2023-02-01T23:00:16;13.80;;;3.35;;
52740;SDS011;38634;52.138;9.912;2023-02-01T23:03:01;11.35;;;3.20;;
52740;SDS011;38634;52.138;9.912;2023-02-01T23:05:45;12.23;;;3.15;;
52740;SDS011;38634;52.138;9.912;2023-02-01T23:08:30;12.02;;;3.88;;
52740;SDS011;38634;52.138;9.912;2023-02-01T23:11:16;10.18;;;3.15;;
52740;SDS011;38634;52.138;9.912;2023-02-01T23:14:00;12.93;;;4.38;;
52740;SDS011;38634;52.138;9.912;2023-02-01T23:16:46;7.93;;;2.53;;
52740;SDS011;38634;52.138;9.912;2023-02-01T23:19:32;16.20;;;4.35;;
52740;SDS011;38634;52.138;9.912;2023-02-01T23:22:16;8.32;;;2.88;;
52740;SDS011;38634;52.138;9.912;2023-02-01T23:25:01;8.55;;;3.13;;
52740;SDS011;38634;52.138;9.912;2023-02-01T23:27:45;4.82;;;3.25;;
52740;SDS011;38634;52.138;9.912;2023-02-01T23:30:31;12.85;;;3.35;;
52740;SDS011;38634;52.138;9.912;2023-02-01T23:33:15;8.23;;;3.42;;
52740;SDS011;38634;52.138;9.912;2023-02-01T23:36:01;7.80;;;3.25;;
52740;SDS011;38634;52.138;9.912;2023-02-01T23:38:48;5.50;;;3.50;;
52740;SDS011;38634;52.138;9.912;2023-02-01T23:41:33;31.45;;;4.07;;
52740;SDS011;38634;52.138;9.912;2023-02-01T23:44:17;7.68;;;3.00;;
52740;SDS011;38634;52.138;9.912;2023-02-01T23:47:02;5.70;;;2.75;;
52740;SDS011;38634;52.138;9.912;2023-02-01T23:49:47;7.28;;;3.28;;
52740;SDS011;38634;52.138;9.912;2023-02-01T23:52:31;7.70;;;3.00;;
52740;SDS011;38634;52.138;9.912;2023-02-01T23:55:16;8.80;;;3.08;;
52740;SDS011;38634;52.138;9.912;2023-02-01T23:58:01;9.30;;;3.33;;
